Warsaw, North Dakota
Current Conditions -  °F | °C
As of 4:58 PM on Saturday 20 Dec 2014 (Local Time) from KRDR Reporting Station
Haze Haze  
Wind Chill: 17°   Ceiling: 300
Heat Index: 28°   Visibility: 6mi
Dew Point: 28°   Wind: 14mph
Humidity: 100%   Direction: 200°SSW
Pressure: 29.92"   Gusts: NA
Location:  48.3242°N, 97.2579°W
Report Text: KRDR 202258Z AUTO 20012KT 6SM R35/5000FT BR OVC003 M02/M02 A2992 RMK AO2 SLP150 T10221022
Loading
Personal Weather Stations






























Interactive Weather Map New forecast layout! Learn more

10-Day Weather Forecast

Advertisements
Track Severe Weather on mobile